SWR2KF EDDS-LSZH

Flight info

Callsign SWR2KF
Flight time 0h 19m
Altitude 17000
Route SUL3B SUL T721 RILAX
Aircraft A320/M-SDE3FGHIRWY/LB1

Departure

Time 2026-05-05 18:22
Airport Stuttgart Airport (EDDS)

Arrival

Time 2026-05-05 18:41
Airport Zürich Airport (LSZH)
Time Latitude Longitude Altitude Speed Heading
2026-05-05 17:55 48.68897 9.19428 1316 ft 0 kts 344°
2026-05-05 18:09 48.68882 9.19434 1315 ft 2 kts 345°
2026-05-05 18:09 48.68866 9.19440 1314 ft 2 kts 359°
2026-05-05 18:10 48.68853 9.19433 1314 ft 0 kts 80°
2026-05-05 18:10 48.68853 9.19432 1314 ft 2 kts 80°
2026-05-05 18:10 48.68843 9.19420 1314 ft 2 kts 28°
2026-05-05 18:11 48.68827 9.19412 1313 ft 2 kts 22°
2026-05-05 18:11 48.68813 9.19401 1313 ft 1 kts 55°
2026-05-05 18:11 48.68810 9.19396 1313 ft 0 kts 72°
2026-05-05 18:13 48.68812 9.19403 1313 ft 3 kts 72°
2026-05-05 18:13 48.68828 9.19490 1312 ft 12 kts 75°
2026-05-05 18:13 48.68854 9.19635 1309 ft 16 kts 74°
2026-05-05 18:14 48.68887 9.19811 1304 ft 12 kts 72°
2026-05-05 18:14 48.68857 9.19888 1300 ft 12 kts 165°
2026-05-05 18:14 48.68812 9.19955 1296 ft 11 kts 81°
2026-05-05 18:14 48.68844 9.20057 1294 ft 11 kts 73°
2026-05-05 18:15 48.68866 9.20171 1292 ft 12 kts 73°
2026-05-05 18:15 48.68893 9.20316 1288 ft 17 kts 74°
2026-05-05 18:15 48.68929 9.20513 1283 ft 22 kts 73°
2026-05-05 18:15 48.68977 9.20764 1279 ft 27 kts 74°
2026-05-05 18:16 48.69031 9.21057 1271 ft 31 kts 72°
2026-05-05 18:16 48.69095 9.21382 1266 ft 34 kts 75°
2026-05-05 18:16 48.69158 9.21722 1254 ft 34 kts 74°
2026-05-05 18:16 48.69220 9.22048 1254 ft 33 kts 74°
2026-05-05 18:17 48.69285 9.22393 1243 ft 35 kts 74°
2026-05-05 18:17 48.69354 9.22755 1231 ft 34 kts 74°
2026-05-05 18:17 48.69422 9.23115 1223 ft 37 kts 74°
2026-05-05 18:17 48.69492 9.23487 1216 ft 34 kts 73°
2026-05-05 18:18 48.69556 9.23817 1209 ft 33 kts 74°
2026-05-05 18:18 48.69604 9.24072 1203 ft 15 kts 73°
2026-05-05 18:18 48.69578 9.24241 1196 ft 18 kts 119°
2026-05-05 18:18 48.69519 9.24308 1191 ft 5 kts 164°
2026-05-05 18:19 48.69509 9.24312 1191 ft 0 kts 164°
2026-05-05 18:20 48.69501 9.24316 1191 ft 4 kts 164°
2026-05-05 18:20 48.69469 9.24329 1190 ft 6 kts 164°
2026-05-05 18:20 48.69421 9.24350 1190 ft 10 kts 165°
2026-05-05 18:20 48.69387 9.24314 1191 ft 5 kts 263°
2026-05-05 18:21 48.69381 9.24278 1192 ft 2 kts 254°
2026-05-05 18:21 48.69365 9.24193 1193 ft 30 kts 254°
2026-05-05 18:21 48.69233 9.23495 1207 ft 104 kts 254°
2026-05-05 18:21 48.68978 9.22154 1241 ft 159 kts 253°
2026-05-05 18:22 48.68675 9.20490 1798 ft 164 kts 255°
2026-05-05 18:22 48.68384 9.18767 2440 ft 177 kts 255°
2026-05-05 18:22 48.68035 9.16830 2772 ft 205 kts 253°
2026-05-05 18:22 48.67594 9.14631 3225 ft 231 kts 252°
2026-05-05 18:23 48.67080 9.12215 3847 ft 252 kts 251°
2026-05-05 18:23 48.66406 9.09781 4965 ft 249 kts 236°
2026-05-05 18:23 48.65101 9.08064 5946 ft 258 kts 211°
2026-05-05 18:23 48.63517 9.06782 6913 ft 258 kts 217°
2026-05-05 18:24 48.62197 9.04944 7832 ft 259 kts 228°
2026-05-05 18:24 48.60999 9.02902 8843 ft 260 kts 230°
2026-05-05 18:24 48.59828 9.00838 9779 ft 263 kts 230°
2026-05-05 18:24 48.58587 8.98653 10319 ft 282 kts 230°
2026-05-05 18:25 48.57264 8.96357 10619 ft 305 kts 229°
2026-05-05 18:25 48.56784 8.95532 10718 ft 313 kts 229°
2026-05-05 18:25 48.54306 8.91330 11771 ft 328 kts 229°
2026-05-05 18:25 48.52766 8.88755 12571 ft 333 kts 228°
2026-05-05 18:26 48.51198 8.86142 13340 ft 337 kts 228°
2026-05-05 18:26 48.49610 8.83499 13739 ft 342 kts 228°
2026-05-05 18:26 48.48005 8.80832 14390 ft 345 kts 228°
2026-05-05 18:26 48.46381 8.78135 15104 ft 348 kts 228°
2026-05-05 18:27 48.45280 8.76306 15570 ft 351 kts 228°
2026-05-05 18:27 48.43557 8.73749 16227 ft 356 kts 217°
2026-05-05 18:27 48.41359 8.71991 16700 ft 362 kts 201°
2026-05-05 18:27 48.38944 8.70842 16829 ft 370 kts 198°
2026-05-05 18:28 48.33839 8.68613 16849 ft 387 kts 197°
2026-05-05 18:28 48.31276 8.67518 16653 ft 377 kts 198°
2026-05-05 18:28 48.28825 8.66465 16586 ft 360 kts 198°
2026-05-05 18:29 48.26446 8.65431 16196 ft 352 kts 198°
2026-05-05 18:29 48.24110 8.64407 15817 ft 346 kts 198°
2026-05-05 18:29 48.21820 8.63396 15439 ft 340 kts 198°
2026-05-05 18:29 48.19567 8.62405 15068 ft 335 kts 198°
2026-05-05 18:30 48.17347 8.61431 14699 ft 330 kts 198°
2026-05-05 18:30 48.15155 8.60473 14339 ft 325 kts 198°
2026-05-05 18:30 48.12995 8.59532 13979 ft 321 kts 198°
2026-05-05 18:30 48.10864 8.58600 13598 ft 317 kts 199°
2026-05-05 18:31 48.08762 8.57680 13207 ft 313 kts 199°
2026-05-05 18:31 48.06686 8.56768 12816 ft 308 kts 199°
2026-05-05 18:31 48.04641 8.55869 12425 ft 304 kts 199°
2026-05-05 18:31 48.02618 8.54985 12038 ft 301 kts 199°
2026-05-05 18:32 48.00618 8.54116 11658 ft 298 kts 199°
2026-05-05 18:32 47.98639 8.53256 11289 ft 295 kts 199°
2026-05-05 18:32 47.96705 8.52417 10941 ft 291 kts 199°
2026-05-05 18:32 47.94790 8.51584 10864 ft 283 kts 199°
2026-05-05 18:33 47.92892 8.50870 10874 ft 281 kts 194°
2026-05-05 18:33 47.90969 8.50328 10871 ft 281 kts 194°
2026-05-05 18:33 47.89045 8.49805 10861 ft 281 kts 194°
2026-05-05 18:33 47.87111 8.49284 10490 ft 281 kts 194°
2026-05-05 18:34 47.85200 8.48770 10133 ft 278 kts 193°
2026-05-05 18:34 47.83296 8.48256 9769 ft 277 kts 193°
2026-05-05 18:34 47.81408 8.47742 9377 ft 275 kts 194°
2026-05-05 18:34 47.79536 8.47239 8983 ft 272 kts 194°
2026-05-05 18:35 47.77708 8.46758 8588 ft 260 kts 194°
2026-05-05 18:35 47.75969 8.46310 8203 ft 247 kts 194°
2026-05-05 18:35 47.74334 8.45898 7826 ft 236 kts 194°
2026-05-05 18:35 47.72740 8.45505 7460 ft 230 kts 194°
2026-05-05 18:36 47.71165 8.45119 7091 ft 228 kts 194°
2026-05-05 18:36 47.69660 8.44490 6721 ft 224 kts 214°
2026-05-05 18:36 47.68420 8.43120 6301 ft 223 kts 223°
2026-05-05 18:36 47.67236 8.41596 5792 ft 227 kts 224°
2026-05-05 18:37 47.66043 8.40035 5286 ft 228 kts 224°
2026-05-05 18:37 47.64862 8.38508 4778 ft 224 kts 219°
2026-05-05 18:37 47.63432 8.37651 4261 ft 227 kts 188°
2026-05-05 18:37 47.61854 8.37844 4017 ft 230 kts 175°
2026-05-05 18:38 47.60269 8.38272 4005 ft 232 kts 172°
2026-05-05 18:38 47.58765 8.39185 4013 ft 239 kts 147°
2026-05-05 18:38 47.57540 8.40788 3906 ft 232 kts 141°
2026-05-05 18:38 47.56373 8.42414 3634 ft 228 kts 141°
2026-05-05 18:39 47.55234 8.43987 3341 ft 218 kts 140°
2026-05-05 18:39 47.54173 8.45444 3085 ft 203 kts 140°
2026-05-05 18:39 47.53165 8.46839 2783 ft 188 kts 140°
2026-05-05 18:39 47.52277 8.48059 2582 ft 165 kts 141°
2026-05-05 18:40 47.51460 8.49159 2322 ft 153 kts 140°
2026-05-05 18:40 47.50704 8.50187 2094 ft 145 kts 139°
2026-05-05 18:40 47.49971 8.51210 1925 ft 145 kts 139°
2026-05-05 18:40 47.49232 8.52205 1728 ft 141 kts 139°
2026-05-05 18:41 47.48519 8.53185 1516 ft 137 kts 139°
2026-05-05 18:41 47.47833 8.54131 1403 ft 127 kts 139°
2026-05-05 18:41 47.47279 8.54872 1398 ft 84 kts 136°
2026-05-05 18:41 47.46966 8.55302 1397 ft 48 kts 137°
2026-05-05 18:42 47.46758 8.55580 1398 ft 28 kts 141°
2026-05-05 18:42 47.46593 8.55683 1405 ft 24 kts 165°
2026-05-05 18:42 47.46462 8.55725 1401 ft 14 kts 166°
2026-05-05 18:42 47.46430 8.55734 1396 ft 0 kts 169°
2026-05-05 18:44 47.46415 8.55739 1400 ft 5 kts 166°
2026-05-05 18:45 47.46386 8.55758 1400 ft 4 kts 149°
2026-05-05 18:45 47.46368 8.55777 1405 ft 2 kts 141°
2026-05-05 18:45 47.46352 8.55800 1400 ft 9 kts 138°
2026-05-05 18:45 47.46298 8.55871 1405 ft 11 kts 138°
2026-05-05 18:46 47.46239 8.55953 1398 ft 12 kts 135°
2026-05-05 18:46 47.46162 8.56001 1399 ft 13 kts 187°
2026-05-05 18:46 47.46069 8.55986 1401 ft 14 kts 185°
2026-05-05 18:46 47.45970 8.55969 1402 ft 16 kts 189°
2026-05-05 18:47 47.45859 8.55910 1399 ft 12 kts 200°
2026-05-05 18:47 47.45833 8.55896 1406 ft 0 kts 199°
2026-05-05 18:48 47.45780 8.55877 1402 ft 16 kts 187°
2026-05-05 18:48 47.45664 8.55860 1398 ft 18 kts 186°
2026-05-05 18:48 47.45646 8.55857 1397 ft 0 kts 186°
2026-05-05 18:49 47.45635 8.55856 1397 ft 6 kts 186°
2026-05-05 18:49 47.45538 8.55840 1397 ft 13 kts 185°
2026-05-05 18:49 47.45485 8.55883 1403 ft 7 kts 168°
2026-05-05 18:50 47.45441 8.55876 1397 ft 6 kts 186°
2026-05-05 18:50 47.45415 8.55872 1397 ft 0 kts 186°